Midland, MI

6:22 AM EST on January 27, 2015 (GMT -0500)
Mount Pleasant Municipal | Change Station
CLOSE
Current Station
Airport
Location: Mount Pleasant,
Elevation: 755 ft
Nearby Weather Stations

Elev 755 ft 43.62 °N, 84.74 °W | Updated 7 minutes ago

Clear
Clear
14 °F
Feels Like 8 °F
N
4
Wind Variable Wind from North

Today
High -- | Low -- °F
--% Chance of Precip.
Yesterday
High -- | Low -- °F
Precip. -- in
7:58 AM 5:41 PM
First Quarter, 53% visible
Pressure 30.06 in
Visibility 10.0 miles
Clouds Mostly Cloudy 8000 ft
Mostly Cloudy 11000 ft
Windchill 8 °F
Dew Point 9 °F
Humidity 81%
Rainfall 0.00 in
Snow Depth Not available.
UV 0 out of 12
Pollen .10 out of 12
Air Quality Not available.
Flu Activity Not available.
METAR KMOP 271115Z AUTO 36003KT 10SM BKN080 BKN110 M10/M13 A3006 RMK AO2 T11001127

More Conditions Fewer Conditions

Pressure 30.06 in
Visibility 10.0 miles
Clouds Mostly Cloudy 8000 ft
Mostly Cloudy 11000 ft
Windchill 8 °F
Dew Point 9 °F
Humidity 81%
Rainfall 0.00 in
Snow Depth Not available.
UV 0 out of 12
Pollen .10 out of 12
Air Quality Not available.
Flu Activity Not available.
METAR KMOP 271115Z AUTO 36003KT 10SM BKN080 BKN110 M10/M13 A3006 RMK AO2 T11001127

More Conditions Fewer Conditions

10-Day Weather Forecast

Almanac

Astronomy

Jan. 27, 2015 Rise Set
Actual Time
Civil Twilight
Nautical Twilight
Astronomical Twilight
Moon
Length of Visible Light
Length of Day
Tomorrow will be .
, % of the Moon is Illuminated

Today's Extremes

State Highs State Lows

Community

WunderPhotos

Upload Photos

1,790,564 photos uploaded!

WunderBlogs® & News

Nearby

Air Quality

  Air Quality AQ Index Pollutant
Not available.

Snow Depth

Station Depth Elevation

Earthquake Activity

City Distance Mag. Time & Date
Minimum magnitude displayed is 2.5.

Coastal Water Temperatures

Place Temperature

Nearby Weather Stations